Time;durP1;ratioP1;P1;durP2;ratioP2;P2;SDS_P1;SDS_P2;PMS_P1;PMS_P2;Temp;Humidity;BMP_temperature;BMP_pressure;BME280_temperature;BME280_humidity;BME280_pressure;Samples;Min_cycle;Max_cycle;Signal;HPM_P1;HPM_P2
2022/03/23 00:01:01;;;;;;;58.38;24.70;;;;;;;-141.50;100.00;63355.56;5086644;28;20301;-77
2022/03/23 00:03:29;;;;;;;53.30;24.30;;;;;;;-141.50;100.00;63355.56;5089390;28;20487;-77
2022/03/23 00:05:55;;;;;;;51.00;23.98;;;;;;;-141.50;100.00;63355.56;5070370;28;20059;-78
2022/03/23 00:08:25;;;;;;;53.60;23.52;;;;;;;-141.50;100.00;63355.56;5088774;28;20074;-76
2022/03/23 00:10:53;;;;;;;50.47;23.70;;;;;;;-141.50;100.00;63355.56;5087497;28;20077;-78
2022/03/23 00:13:19;;;;;;;52.25;23.02;;;;;;;-141.50;100.00;63355.56;5079187;28;20048;-76
2022/03/23 00:15:47;;;;;;;56.17;25.00;;;;;;;-141.50;100.00;63355.56;5102860;28;20142;-78
2022/03/23 00:18:13;;;;;;;47.95;23.23;;;;;;;-141.50;100.00;63355.56;5108437;28;20610;-77
2022/03/23 00:20:43;;;;;;;52.50;24.70;;;;;;;-141.50;100.00;63355.56;5107632;28;20506;-78
2022/03/23 00:23:09;;;;;;;50.50;23.30;;;;;;;-141.50;100.00;63355.56;5108976;28;20182;-76
2022/03/23 00:25:36;;;;;;;55.83;24.85;;;;;;;-141.50;100.00;63355.56;5090248;28;20047;-77
2022/03/23 00:28:04;;;;;;;48.90;23.98;;;;;;;-141.50;100.00;63355.56;5109158;28;20112;-76
2022/03/23 00:30:33;;;;;;;57.67;23.65;;;;;;;-141.50;100.00;63355.56;5088490;28;20051;-75
2022/03/23 00:33:22;;;;;;;55.75;24.25;;;;;;;-141.50;100.00;63355.56;5108640;28;20143;-78
2022/03/23 00:35:49;;;;;;;51.83;23.30;;;;;;;-141.50;100.00;63355.56;5108863;28;20056;-79
2022/03/23 00:38:17;;;;;;;52.47;23.42;;;;;;;-141.50;100.00;63355.56;5108616;28;20481;-76
2022/03/23 00:40:44;;;;;;;54.90;24.92;;;;;;;-141.50;100.00;63355.56;5107690;28;20051;-76
2022/03/23 00:43:11;;;;;;;49.60;22.80;;;;;;;-141.50;100.00;63355.56;5109671;28;20055;-78
2022/03/23 00:45:38;;;;;;;50.13;21.42;;;;;;;-141.50;100.00;63355.56;5107865;28;20556;-77
2022/03/23 00:48:05;;;;;;;44.17;20.75;;;;;;;-141.50;100.00;63355.56;5088550;28;20415;-77
2022/03/23 00:50:33;;;;;;;40.15;19.17;;;;;;;-141.50;100.00;63355.56;5107397;28;20043;-75
2022/03/23 00:53:00;;;;;;;48.70;21.88;;;;;;;-141.50;100.00;63355.56;5108356;28;20552;-77
2022/03/23 00:55:26;;;;;;;46.35;20.15;;;;;;;-141.50;100.00;63355.56;5108281;28;20082;-78
2022/03/23 00:57:53;;;;;;;49.03;21.70;;;;;;;-141.50;100.00;63355.56;5108893;28;20102;-78
2022/03/23 01:00:22;;;;;;;53.35;22.38;;;;;;;-141.50;100.00;63355.56;5106378;28;20063;-76
2022/03/23 01:02:49;;;;;;;48.55;20.77;;;;;;;-141.50;100.00;63355.56;5069005;28;20833;-79
2022/03/23 01:05:16;;;;;;;39.00;18.70;;;;;;;-141.50;100.00;63355.56;5090403;28;20052;-78
2022/03/23 01:07:43;;;;;;;40.65;19.33;;;;;;;-141.50;100.00;63355.56;5092758;28;20706;-77
2022/03/23 01:10:12;;;;;;;47.33;20.05;;;;;;;-141.50;100.00;63355.56;5092853;28;20093;-78
2022/03/23 01:12:40;;;;;;;47.45;19.25;;;;;;;-141.50;100.00;63355.56;5091136;28;20040;-77
2022/03/23 01:15:09;;;;;;;39.00;17.50;;;;;;;-141.50;100.00;63355.56;5108637;28;20527;-77
2022/03/23 01:17:37;;;;;;;37.97;17.02;;;;;;;-141.50;100.00;63355.56;5091161;28;20465;-77
2022/03/23 01:20:06;;;;;;;36.83;17.60;;;;;;;-141.50;100.00;63355.56;5108659;28;20108;-78
2022/03/23 01:22:33;;;;;;;39.88;18.15;;;;;;;-141.50;100.00;63355.56;5110975;28;20056;-77
2022/03/23 01:24:59;;;;;;;40.60;17.58;;;;;;;-141.50;100.00;63355.56;5113469;28;20059;-78
2022/03/23 01:27:26;;;;;;;38.90;17.08;;;;;;;-141.50;100.00;63355.56;5113416;28;20468;-77
2022/03/23 01:29:52;;;;;;;39.08;16.70;;;;;;;-141.50;100.00;63355.56;5113238;28;20082;-78
2022/03/23 01:32:19;;;;;;;39.08;18.33;;;;;;;-141.50;100.00;63355.56;5112794;28;20049;-77
2022/03/23 01:34:45;;;;;;;40.75;17.25;;;;;;;-141.50;100.00;63355.56;5095274;28;20529;-76
2022/03/23 01:37:12;;;;;;;36.30;15.52;;;;;;;-141.50;100.00;63355.56;5112381;28;20090;-78
2022/03/23 01:39:40;;;;;;;38.22;17.17;;;;;;;-141.50;100.00;63355.56;5113008;28;20104;-79
2022/03/23 01:42:06;;;;;;;33.80;16.52;;;;;;;-141.50;100.00;63355.56;5111346;28;20098;-77
2022/03/23 01:44:34;;;;;;;37.47;17.60;;;;;;;-141.50;100.00;63355.56;5112008;28;20052;-77
2022/03/23 01:47:12;;;;;;;42.33;17.27;;;;;;;-141.50;100.00;63355.56;5112300;28;20051;-77
2022/03/23 01:49:41;;;;;;;35.35;17.13;;;;;;;-141.50;100.00;63355.56;5122133;28;20119;-76
2022/03/23 01:52:10;;;;;;;40.15;16.70;;;;;;;-141.50;100.00;63355.56;5107900;28;20116;-76
2022/03/23 01:54:38;;;;;;;44.15;17.63;;;;;;;-141.50;100.00;63355.56;5125234;28;20537;-76
2022/03/23 01:57:07;;;;;;;37.40;17.73;;;;;;;-141.50;100.00;63355.56;5112493;28;20067;-76
2022/03/23 01:59:35;;;;;;;36.83;17.13;;;;;;;-141.50;100.00;63355.56;5112533;28;20104;-76
2022/03/23 02:02:03;;;;;;;36.58;15.95;;;;;;;-141.50;100.00;63355.56;5112836;28;20082;-78
2022/03/23 02:04:30;;;;;;;30.45;14.18;;;;;;;-141.50;100.00;63355.56;5112466;28;20051;-76
2022/03/23 02:06:57;;;;;;;29.55;14.32;;;;;;;-141.50;100.00;63355.56;5112864;28;20112;-78
2022/03/23 02:09:25;;;;;;;33.60;15.43;;;;;;;-141.50;100.00;63355.56;5111692;28;20113;-77
2022/03/23 02:11:52;;;;;;;37.80;16.70;;;;;;;-141.50;100.00;63355.56;5099707;28;20644;-77
2022/03/23 02:14:19;;;;;;;34.47;16.77;;;;;;;-141.50;100.00;63355.56;5106442;28;20048;-78
2022/03/23 02:16:48;;;;;;;37.30;17.05;;;;;;;-141.50;100.00;63355.56;5090657;28;20047;-77
2022/03/23 02:19:14;;;;;;;40.20;17.75;;;;;;;-141.50;100.00;63355.56;5073701;28;20044;-76
2022/03/23 02:21:42;;;;;;;43.75;18.05;;;;;;;-141.50;100.00;63355.56;5089498;28;20052;-78
2022/03/23 02:24:09;;;;;;;42.80;17.63;;;;;;;-141.50;100.00;63355.56;5090942;28;20058;-79
2022/03/23 02:26:37;;;;;;;35.20;16.15;;;;;;;-141.50;100.00;63355.56;5090725;28;20131;-77
2022/03/23 02:29:07;;;;;;;35.08;16.63;;;;;;;-141.50;100.00;63355.56;5090966;28;20117;-76
2022/03/23 02:31:35;;;;;;;39.42;16.25;;;;;;;-141.50;100.00;63355.56;5088995;28;20055;-76
2022/03/23 02:34:03;;;;;;;37.38;16.40;;;;;;;-141.50;100.00;63355.56;5089575;28;20062;-77
2022/03/23 02:36:30;;;;;;;36.05;15.93;;;;;;;-141.50;100.00;63355.56;5090224;28;20056;-76
2022/03/23 02:38:57;;;;;;;38.40;16.38;;;;;;;-141.50;100.00;63355.56;5090918;28;20101;-77
2022/03/23 02:41:23;;;;;;;33.95;16.52;;;;;;;-141.50;100.00;63355.56;5090631;28;20507;-77
2022/03/23 02:43:50;;;;;;;37.17;16.63;;;;;;;-141.50;100.00;63355.56;5092156;28;20052;-76
2022/03/23 02:46:19;;;;;;;37.55;16.88;;;;;;;-141.50;100.00;63355.56;5092766;28;20696;-77
2022/03/23 02:48:47;;;;;;;41.72;15.45;;;;;;;-141.50;100.00;63355.56;5107082;28;20051;-78
2022/03/23 02:51:14;;;;;;;41.38;17.23;;;;;;;-141.50;100.00;63355.56;5107021;28;20056;-77
2022/03/23 03:02:25;;;;;;;40.92;16.60;;;;;;;-141.50;100.00;63355.56;5089054;28;20132;-77
2022/03/23 03:04:51;;;;;;;38.35;16.67;;;;;;;-141.50;100.00;63355.56;5073016;28;20089;-78
2022/03/23 03:07:18;;;;;;;33.45;16.15;;;;;;;-141.50;100.00;63355.56;5090204;28;20076;-76
2022/03/23 03:09:45;;;;;;;36.72;16.08;;;;;;;-141.50;100.00;63355.56;5090220;28;20397;-78
2022/03/23 03:12:12;;;;;;;30.38;15.50;;;;;;;-141.50;100.00;63355.56;5090200;28;20487;-77
2022/03/23 03:14:39;;;;;;;32.78;14.38;;;;;;;-141.50;100.00;63355.56;5101484;28;20050;-76
2022/03/23 03:17:07;;;;;;;37.50;15.18;;;;;;;-141.50;100.00;63355.56;5109440;28;20733;-77
2022/03/23 03:19:37;;;;;;;30.30;15.20;;;;;;;-141.50;100.00;63355.56;5092783;28;20047;-76
2022/03/23 03:22:05;;;;;;;32.40;15.55;;;;;;;-141.50;100.00;63355.56;5108612;28;20052;-79
2022/03/23 03:24:31;;;;;;;33.88;15.15;;;;;;;-141.50;100.00;63355.56;5091694;28;20052;-77
2022/03/23 03:26:58;;;;;;;35.90;15.35;;;;;;;-141.50;100.00;63355.56;5109804;28;20079;-77
2022/03/23 03:29:25;;;;;;;35.90;15.55;;;;;;;-141.50;100.00;63355.56;5090946;28;20479;-78
2022/03/23 03:31:52;;;;;;;28.50;14.75;;;;;;;-141.50;100.00;63355.56;5108121;28;20117;-76
2022/03/23 03:34:19;;;;;;;37.00;14.48;;;;;;;-141.50;100.00;63355.56;5109582;28;20115;-78
2022/03/23 03:36:45;;;;;;;30.20;14.75;;;;;;;-141.50;100.00;63355.56;5109708;28;20678;-77
2022/03/23 03:39:12;;;;;;;37.08;15.73;;;;;;;-141.50;100.00;63355.56;5109846;28;20051;-76
2022/03/23 03:41:39;;;;;;;31.17;14.88;;;;;;;-141.50;100.00;63355.56;5108582;28;20218;-76
2022/03/23 03:44:06;;;;;;;34.13;15.45;;;;;;;-141.50;100.00;63355.56;5109569;28;20424;-76
2022/03/23 03:46:33;;;;;;;30.80;14.80;;;;;;;-141.50;100.00;63355.56;5108850;28;20510;-77
2022/03/23 03:49:00;;;;;;;32.78;14.77;;;;;;;-141.50;100.00;63355.56;5110021;28;20048;-78
2022/03/23 03:51:26;;;;;;;31.63;14.15;;;;;;;-141.50;100.00;63355.56;5109466;28;20582;-76
2022/03/23 03:53:53;;;;;;;32.30;13.32;;;;;;;-141.50;100.00;63355.56;5109892;28;20105;-76
2022/03/23 03:56:19;;;;;;;30.67;14.48;;;;;;;-141.50;100.00;63355.56;5109208;28;20119;-77
2022/03/23 03:58:46;;;;;;;35.80;15.15;;;;;;;-141.50;100.00;63355.56;5109552;28;20053;-78
2022/03/23 04:01:14;;;;;;;33.47;14.98;;;;;;;-141.50;100.00;63355.56;5107646;28;20048;-77
2022/03/23 04:03:41;;;;;;;28.83;13.50;;;;;;;-141.50;100.00;63355.56;5109001;28;20491;-76
2022/03/23 04:06:08;;;;;;;25.58;12.38;;;;;;;-141.50;100.00;63355.56;5109581;28;20048;-80
2022/03/23 04:08:35;;;;;;;32.72;13.07;;;;;;;-141.50;100.00;63355.56;5109702;28;20093;-78
2022/03/23 04:11:02;;;;;;;29.85;13.48;;;;;;;-141.50;100.00;63355.56;5108209;28;20058;-78
2022/03/23 04:13:29;;;;;;;25.83;12.43;;;;;;;-141.50;100.00;63355.56;5104407;28;20052;-76
2022/03/23 04:15:56;;;;;;;29.30;13.15;;;;;;;-141.50;100.00;63355.56;5104178;28;20491;-77
2022/03/23 04:18:22;;;;;;;30.65;14.50;;;;;;;-141.50;100.00;63355.56;5109856;28;20051;-77
2022/03/23 04:20:50;;;;;;;28.35;13.30;;;;;;;-141.50;100.00;63355.56;5109480;28;20051;-78
2022/03/23 04:23:16;;;;;;;25.83;12.68;;;;;;;-141.50;100.00;63355.56;5112083;28;20048;-79
2022/03/23 04:25:43;;;;;;;28.80;13.00;;;;;;;-141.50;100.00;63355.56;5111732;28;20051;-76
2022/03/23 04:28:10;;;;;;;30.27;13.13;;;;;;;-141.50;100.00;63355.56;5096221;28;20039;-77
2022/03/23 04:30:37;;;;;;;29.90;13.88;;;;;;;-141.50;100.00;63355.56;5107498;28;20044;-76
2022/03/23 04:33:04;;;;;;;29.23;12.93;;;;;;;-141.50;100.00;63355.56;5108708;28;20059;-76
2022/03/23 04:35:31;;;;;;;29.38;13.40;;;;;;;-141.50;100.00;63355.56;5091203;28;20051;-76
2022/03/23 04:37:57;;;;;;;24.00;11.90;;;;;;;-141.50;100.00;63355.56;5109338;28;20120;-77
2022/03/23 04:40:24;;;;;;;27.15;13.52;;;;;;;-141.50;100.00;63355.56;5108923;28;20055;-78
2022/03/23 04:42:51;;;;;;;29.88;11.82;;;;;;;-141.50;100.00;63355.56;5109375;28;20043;-76
2022/03/23 04:45:18;;;;;;;28.83;13.10;;;;;;;-141.50;100.00;63355.56;5108551;28;20116;-77
2022/03/23 04:47:45;;;;;;;29.67;12.57;;;;;;;-141.50;100.00;63355.56;5108960;28;20059;-77
2022/03/23 04:50:13;;;;;;;26.30;11.90;;;;;;;-141.50;100.00;63355.56;5095214;28;20512;-75
2022/03/23 04:52:43;;;;;;;27.48;12.65;;;;;;;-141.50;100.00;63355.56;5096408;28;20078;-76
2022/03/23 04:55:11;;;;;;;23.95;11.23;;;;;;;-141.50;100.00;63355.56;5088966;28;20048;-76
2022/03/23 04:57:38;;;;;;;24.75;11.68;;;;;;;-141.50;100.00;63355.56;5091151;28;20105;-78
2022/03/23 05:00:15;;;;;;;26.88;11.77;;;;;;;-141.50;100.00;63355.56;5088720;28;20572;-75
2022/03/23 05:02:46;;;;;;;23.95;11.75;;;;;;;-141.50;100.00;63355.56;5092398;28;20051;-77
2022/03/23 05:05:14;;;;;;;30.15;12.40;;;;;;;-141.50;100.00;63355.56;5092912;28;20056;-76
2022/03/23 05:07:42;;;;;;;25.70;11.00;;;;;;;-141.50;100.00;63355.56;5088185;28;20047;-78
2022/03/23 05:10:10;;;;;;;22.42;10.50;;;;;;;-141.50;100.00;63355.56;5087664;28;20048;-78
2022/03/23 05:12:38;;;;;;;21.13;11.05;;;;;;;-141.50;100.00;63355.56;5093305;28;20085;-76
2022/03/23 05:15:06;;;;;;;22.70;10.75;;;;;;;-141.50;100.00;63355.56;5103894;28;20052;-80
2022/03/23 05:17:33;;;;;;;21.08;10.68;;;;;;;-141.50;100.00;63355.56;5092852;28;20078;-78
2022/03/23 05:19:59;;;;;;;25.42;11.32;;;;;;;-141.50;100.00;63355.56;5125741;28;20044;-79
2022/03/23 05:22:26;;;;;;;36.42;11.23;;;;;;;-141.50;100.00;63355.56;5131816;28;20039;-77
2022/03/23 05:24:53;;;;;;;24.08;10.45;;;;;;;-141.50;100.00;63355.56;5132189;28;20048;-75
2022/03/23 05:27:20;;;;;;;22.63;11.25;;;;;;;-141.50;100.00;63355.56;5129516;28;20047;-76
2022/03/23 05:29:47;;;;;;;23.30;10.75;;;;;;;-141.50;100.00;63355.56;5129451;28;20415;-76
2022/03/23 05:32:16;;;;;;;21.23;10.63;;;;;;;-141.50;100.00;63355.56;5110163;28;20039;-77
2022/03/23 05:34:44;;;;;;;31.23;11.10;;;;;;;-141.50;100.00;63355.56;5130852;28;20065;-76
2022/03/23 05:37:11;;;;;;;22.48;10.90;;;;;;;-141.50;100.00;63355.56;5111385;28;20052;-79
2022/03/23 05:39:38;;;;;;;22.15;10.48;;;;;;;-141.50;100.00;63355.56;5108255;28;20138;-78
2022/03/23 05:42:07;;;;;;;26.77;10.68;;;;;;;-141.50;100.00;63355.56;5106803;28;20479;-76
2022/03/23 05:44:35;;;;;;;25.65;10.98;;;;;;;-141.50;100.00;63355.56;5107874;28;20055;-78
2022/03/23 05:47:02;;;;;;;22.40;11.18;;;;;;;-141.50;100.00;63355.56;5089274;28;20550;-77
2022/03/23 05:49:29;;;;;;;21.23;11.07;;;;;;;-141.50;100.00;63355.56;5108965;28;20411;-76
2022/03/23 05:51:56;;;;;;;22.77;10.73;;;;;;;-141.50;100.00;63355.56;5106131;28;20136;-77
2022/03/23 05:54:23;;;;;;;29.80;10.75;;;;;;;-141.50;100.00;63355.56;5108054;28;20055;-77
2022/03/23 05:56:50;;;;;;;25.10;10.63;;;;;;;-141.50;100.00;63355.56;5104861;28;20074;-77
2022/03/23 05:59:17;;;;;;;26.38;10.65;;;;;;;-141.50;100.00;63355.56;5087877;28;20041;-76
2022/03/23 06:01:44;;;;;;;23.27;10.38;;;;;;;-141.50;100.00;63355.56;5086270;28;20089;-77
2022/03/23 06:04:12;;;;;;;23.77;10.55;;;;;;;-141.50;100.00;63355.56;5087951;28;20048;-78
2022/03/23 06:06:39;;;;;;;28.67;12.20;;;;;;;-141.50;100.00;63355.56;5087378;28;20170;-77
2022/03/23 06:09:06;;;;;;;30.50;12.00;;;;;;;-141.50;100.00;63355.56;5091566;28;20047;-77
2022/03/23 06:11:32;;;;;;;27.55;12.05;;;;;;;-141.50;100.00;63355.56;5090950;28;20146;-77
2022/03/23 06:13:59;;;;;;;27.58;11.80;;;;;;;-141.50;100.00;63355.56;5068066;28;20131;-78
2022/03/23 06:16:26;;;;;;;36.55;14.57;;;;;;;-141.50;100.00;63355.56;5087848;28;20074;-79
2022/03/23 06:18:53;;;;;;;50.92;19.73;;;;;;;-141.50;100.00;63355.56;5099864;28;20048;-79
2022/03/23 06:21:19;;;;;;;59.90;22.83;;;;;;;-141.50;100.00;63355.56;5107323;28;20051;-78
2022/03/23 06:23:46;;;;;;;48.63;17.40;;;;;;;-141.50;100.00;63355.56;5087110;28;20048;-77
2022/03/23 06:26:12;;;;;;;50.50;18.85;;;;;;;-141.50;100.00;63355.56;5092012;28;20688;-77
2022/03/23 06:28:39;;;;;;;34.55;16.00;;;;;;;-141.50;100.00;63355.56;5093500;28;20112;-76
2022/03/23 06:31:06;;;;;;;35.63;14.52;;;;;;;-141.50;100.00;63355.56;5094800;28;20051;-77
2022/03/23 06:33:33;;;;;;;32.03;13.45;;;;;;;-141.50;100.00;63355.56;5106112;28;20055;-78
2022/03/23 06:35:59;;;;;;;31.55;13.45;;;;;;;-141.50;100.00;63355.56;5087691;28;20547;-76
2022/03/23 06:38:26;;;;;;;29.17;13.07;;;;;;;-141.50;100.00;63355.56;5089126;28;20131;-78
2022/03/23 06:40:53;;;;;;;27.40;12.77;;;;;;;-141.50;100.00;63355.56;5084143;28;20045;-79
2022/03/23 06:43:21;;;;;;;30.48;13.93;;;;;;;-141.50;100.00;63355.56;5088150;28;20052;-78
2022/03/23 06:45:47;;;;;;;30.73;13.40;;;;;;;-141.50;100.00;63355.56;5085502;28;20102;-78
2022/03/23 06:48:14;;;;;;;32.45;13.40;;;;;;;-141.50;100.00;63355.56;5089262;28;20079;-79
2022/03/23 06:50:40;;;;;;;29.23;13.13;;;;;;;-141.50;100.00;63355.56;5093558;28;20528;-79
2022/03/23 06:53:07;;;;;;;38.78;12.98;;;;;;;-141.50;100.00;63355.56;5110015;28;20043;-77
2022/03/23 06:55:33;;;;;;;27.23;11.95;;;;;;;-141.50;100.00;63355.56;5109880;28;20871;-77
2022/03/23 06:58:00;;;;;;;24.00;12.05;;;;;;;-141.50;100.00;63355.56;5110579;28;20051;-78
2022/03/23 07:00:26;;;;;;;24.35;11.45;;;;;;;-141.50;100.00;63355.56;5108481;28;20043;-80
2022/03/23 07:02:53;;;;;;;26.67;11.55;;;;;;;-141.50;100.00;63355.56;5110070;28;20083;-78
2022/03/23 07:05:20;;;;;;;29.92;12.40;;;;;;;-141.50;100.00;63355.56;5109830;28;20067;-78
2022/03/23 07:10:33;;;;;;;22.52;11.27;;;;;;;-141.50;100.00;63355.56;5108871;28;20071;-78
2022/03/23 07:12:59;;;;;;;20.67;10.75;;;;;;;-141.50;100.00;63355.56;5087863;28;20207;-78
2022/03/23 07:15:26;;;;;;;34.60;10.85;;;;;;;-141.50;100.00;63355.56;5095305;28;20169;-79
2022/03/23 07:17:53;;;;;;;23.73;11.10;;;;;;;-141.50;100.00;63355.56;5077429;28;20103;-78
2022/03/23 07:20:19;;;;;;;20.85;10.13;;;;;;;-141.50;100.00;63355.56;5093740;28;20048;-78
2022/03/23 07:22:46;;;;;;;23.38;9.75;;;;;;;-141.50;100.00;63355.56;5094417;28;20130;-79
2022/03/23 07:25:12;;;;;;;22.48;10.27;;;;;;;-141.50;100.00;63355.56;5095449;28;20063;-80
2022/03/23 07:27:39;;;;;;;23.20;10.50;;;;;;;-141.50;100.00;63355.56;5094820;28;20154;-78
2022/03/23 07:30:07;;;;;;;21.58;10.15;;;;;;;-141.50;100.00;63355.56;5089272;28;20052;-79
2022/03/23 07:32:34;;;;;;;20.45;10.32;;;;;;;-141.50;100.00;63355.56;5087726;28;20138;-79
2022/03/23 07:35:00;;;;;;;22.80;10.10;;;;;;;-141.50;100.00;63355.56;5089280;28;20128;-78
2022/03/23 07:37:28;;;;;;;25.17;9.77;;;;;;;-141.50;100.00;63355.56;5088530;28;20055;-76
2022/03/23 07:39:55;;;;;;;19.25;9.75;;;;;;;-141.50;100.00;63355.56;5072494;28;20136;-77
2022/03/23 07:42:26;;;;;;;21.42;9.30;;;;;;;-141.50;100.00;63355.56;5071360;28;20059;-79
2022/03/23 07:44:52;;;;;;;19.67;9.90;;;;;;;-141.50;100.00;63355.56;5091600;28;20170;-79
2022/03/23 07:47:19;;;;;;;21.00;9.50;;;;;;;-141.50;100.00;63355.56;5088940;28;20109;-78
2022/03/23 07:49:45;;;;;;;17.33;9.07;;;;;;;-141.50;100.00;63355.56;5089012;28;20106;-78
2022/03/23 07:52:12;;;;;;;21.23;9.50;;;;;;;-141.50;100.00;63355.56;5086996;28;20052;-76
2022/03/23 07:54:38;;;;;;;17.77;9.55;;;;;;;-141.50;100.00;63355.56;5089025;28;21066;-77
2022/03/23 07:57:05;;;;;;;18.20;8.75;;;;;;;-141.50;100.00;63355.56;5087981;28;20048;-78
2022/03/23 07:59:33;;;;;;;16.70;9.30;;;;;;;-141.50;100.00;63355.56;5088277;28;20499;-78
2022/03/23 08:01:59;;;;;;;22.75;8.65;;;;;;;-141.50;100.00;63355.56;5086651;28;20067;-80
2022/03/23 08:04:26;;;;;;;22.48;9.88;;;;;;;-141.50;100.00;63355.56;5071275;28;20051;-80
2022/03/23 08:06:53;;;;;;;21.80;9.73;;;;;;;-141.50;100.00;63355.56;5087934;28;20056;-79
2022/03/23 08:09:20;;;;;;;24.25;10.00;;;;;;;-141.50;100.00;63355.56;5070434;28;20120;-77
2022/03/23 08:11:46;;;;;;;18.17;9.25;;;;;;;-141.50;100.00;63355.56;5088247;28;20084;-78
2022/03/23 08:14:13;;;;;;;19.98;9.25;;;;;;;-141.50;100.00;63355.56;5100686;28;20080;-76
2022/03/23 08:16:39;;;;;;;20.75;9.13;;;;;;;-141.50;100.00;63355.56;5106225;28;20105;-79
2022/03/23 08:19:06;;;;;;;16.90;8.75;;;;;;;-141.50;100.00;63355.56;5070816;28;20052;-77
2022/03/23 08:21:34;;;;;;;16.13;8.93;;;;;;;-141.50;100.00;63355.56;5087151;28;20047;-76
2022/03/23 08:24:01;;;;;;;21.23;9.80;;;;;;;-141.50;100.00;63355.56;5088507;28;20082;-78
2022/03/23 08:26:28;;;;;;;19.40;9.20;;;;;;;-141.50;100.00;63355.56;5090293;28;20083;-79
2022/03/23 08:28:54;;;;;;;23.00;10.18;;;;;;;-141.50;100.00;63355.56;5072841;28;20044;-80
2022/03/23 08:31:21;;;;;;;16.77;9.18;;;;;;;-141.50;100.00;63355.56;5089788;28;20465;-79
2022/03/23 08:33:48;;;;;;;20.55;9.20;;;;;;;-141.50;100.00;63355.56;5091705;28;20135;-78
2022/03/23 08:36:14;;;;;;;17.50;9.30;;;;;;;-141.50;100.00;63355.56;5080196;28;20097;-80
2022/03/23 08:38:41;;;;;;;16.40;9.07;;;;;;;-141.50;100.00;63355.56;5097020;28;20055;-79
2022/03/23 08:41:07;;;;;;;16.42;9.20;;;;;;;-141.50;100.00;63355.56;5095634;28;20051;-79
2022/03/23 08:43:34;;;;;;;17.10;9.55;;;;;;;-141.50;100.00;63355.56;5096068;28;20060;-78
2022/03/23 08:46:01;;;;;;;17.95;9.35;;;;;;;-141.50;100.00;63355.56;5099753;28;20060;-79
2022/03/23 08:48:27;;;;;;;16.15;8.80;;;;;;;-141.50;100.00;63355.56;5085894;28;20075;-80
2022/03/23 08:50:55;;;;;;;14.18;9.05;;;;;;;-141.50;100.00;63355.56;5108788;28;20044;-79
2022/03/23 08:53:23;;;;;;;16.85;9.70;;;;;;;-141.50;100.00;63355.56;5106650;28;20047;-80
2022/03/23 08:55:49;;;;;;;16.48;9.27;;;;;;;-141.50;100.00;63355.56;5097880;28;20512;-79
2022/03/23 08:58:16;;;;;;;16.13;9.98;;;;;;;-141.50;100.00;63355.56;5089782;28;20154;-78
2022/03/23 09:00:44;;;;;;;19.13;9.57;;;;;;;-141.50;100.00;63355.56;5087205;28;20051;-77
2022/03/23 09:03:11;;;;;;;20.40;10.63;;;;;;;-141.50;100.00;63355.56;5087434;28;20055;-77
2022/03/23 09:05:37;;;;;;;20.13;10.50;;;;;;;-141.50;100.00;63355.56;5087758;28;20055;-79
2022/03/23 09:08:04;;;;;;;21.88;10.45;;;;;;;-141.50;100.00;63355.56;5070118;28;20090;-79
2022/03/23 09:10:31;;;;;;;15.52;10.23;;;;;;;-141.50;100.00;63355.56;5069014;28;20052;-77
2022/03/23 09:12:57;;;;;;;18.20;10.82;;;;;;;-141.50;100.00;63355.56;5095683;28;20071;-79
2022/03/23 09:15:24;;;;;;;22.15;11.05;;;;;;;-141.50;100.00;63355.56;5068629;28;20044;-78
2022/03/23 09:17:50;;;;;;;21.30;10.05;;;;;;;-141.50;100.00;63355.56;5069138;28;20147;-77
2022/03/23 09:20:17;;;;;;;21.52;11.07;;;;;;;-141.50;100.00;63355.56;5086767;28;20764;-78
2022/03/23 09:22:44;;;;;;;22.20;10.93;;;;;;;-141.50;100.00;63355.56;5066685;28;20048;-77
2022/03/23 09:25:15;;;;;;;17.35;10.77;;;;;;;-141.50;100.00;63355.56;5068820;28;20044;-79
2022/03/23 09:27:43;;;;;;;18.52;11.60;;;;;;;-141.50;100.00;63355.56;5087613;28;20048;-78
2022/03/23 09:30:13;;;;;;;18.33;10.98;;;;;;;-141.50;100.00;63355.56;5086038;28;20060;-79
2022/03/23 09:32:44;;;;;;;23.20;11.50;;;;;;;-141.50;100.00;63355.56;5085644;28;20074;-78
2022/03/23 09:35:11;;;;;;;24.50;11.68;;;;;;;-141.50;100.00;63355.56;5087208;28;20106;-77
2022/03/23 09:37:48;;;;;;;21.30;11.77;;;;;;;-141.50;100.00;63355.56;5087664;28;20052;-77
2022/03/23 09:40:25;;;;;;;20.40;12.05;;;;;;;-141.50;100.00;63355.56;5086821;28;20052;-79
2022/03/23 09:43:04;;;;;;;21.73;12.00;;;;;;;-141.50;100.00;63355.56;5072861;28;20138;-78
2022/03/23 09:48:03;;;;;;;22.50;12.52;;;;;;;-141.50;100.00;63355.56;5091498;28;20109;-77
2022/03/23 09:50:32;;;;;;;25.63;13.48;;;;;;;-141.50;100.00;63355.56;5091097;28;20124;-78
2022/03/23 09:53:00;;;;;;;22.70;12.68;;;;;;;-141.50;100.00;63355.56;5090993;28;20048;-76
2022/03/23 09:55:26;;;;;;;22.27;13.07;;;;;;;-141.50;100.00;63355.56;5090953;28;20280;-76
2022/03/23 09:57:57;;;;;;;26.70;13.20;;;;;;;-141.50;100.00;63355.56;5091174;28;20048;-79
2022/03/23 10:00:28;;;;;;;22.83;13.50;;;;;;;-141.50;100.00;63355.56;5090054;28;20135;-79
2022/03/23 10:02:57;;;;;;;25.08;12.82;;;;;;;-141.50;100.00;63355.56;5090222;28;20066;-78
2022/03/23 10:05:27;;;;;;;21.35;13.35;;;;;;;-141.50;100.00;63355.56;5074163;28;20052;-80
2022/03/23 10:08:31;;;;;;;20.05;13.00;;;;;;;-141.50;100.00;63355.56;5094076;28;20135;-78
2022/03/23 10:11:04;;;;;;;25.83;13.10;;;;;;;-141.50;100.00;63355.56;5090819;28;20056;-79
2022/03/23 10:14:08;;;;;;;22.10;13.02;;;;;;;-141.50;100.00;63355.56;5106262;28;20453;-78
2022/03/23 10:17:01;;;;;;;23.63;13.82;;;;;;;-141.50;100.00;63355.56;5089940;28;20044;-78
2022/03/23 10:19:27;;;;;;;29.75;13.30;;;;;;;-141.50;100.00;63355.56;5091448;28;20132;-78
2022/03/23 10:21:54;;;;;;;22.45;13.75;;;;;;;-141.50;100.00;63355.56;5088410;28;20086;-78
2022/03/23 10:24:20;;;;;;;20.08;13.38;;;;;;;-141.50;100.00;63355.56;5093403;28;20137;-78
2022/03/23 10:26:49;;;;;;;25.17;14.10;;;;;;;-141.50;100.00;63355.56;5108170;28;20130;-78
2022/03/23 10:29:24;;;;;;;21.00;14.30;;;;;;;-141.50;100.00;63355.56;5111803;28;20482;-78
2022/03/23 10:32:11;;;;;;;20.40;14.15;;;;;;;-141.50;100.00;63355.56;5091442;28;20052;-78
2022/03/23 10:34:47;;;;;;;23.70;14.07;;;;;;;-141.50;100.00;63355.56;5113436;28;20134;-79
2022/03/23 10:37:20;;;;;;;22.17;13.57;;;;;;;-141.50;100.00;63355.56;5111864;28;20070;-78
2022/03/23 10:39:48;;;;;;;21.77;13.63;;;;;;;-141.50;100.00;63355.56;5098420;28;20590;-78
2022/03/23 10:42:17;;;;;;;20.17;13.70;;;;;;;-141.50;100.00;63355.56;5089211;28;20140;-79
2022/03/23 10:44:47;;;;;;;22.23;13.80;;;;;;;-141.50;100.00;63355.56;5089520;28;20080;-79
2022/03/23 10:47:33;;;;;;;19.65;13.30;;;;;;;-141.50;100.00;63355.56;5099043;28;20047;-79
2022/03/23 10:50:10;;;;;;;19.90;13.80;;;;;;;-141.50;100.00;63355.56;5113444;28;20060;-78
2022/03/23 10:52:49;;;;;;;26.65;14.90;;;;;;;-141.50;100.00;63355.56;5099825;28;20059;-79
2022/03/23 10:55:16;;;;;;;21.73;13.48;;;;;;;-141.50;100.00;63355.56;5069979;28;20083;-80
2022/03/23 10:57:58;;;;;;;18.85;13.38;;;;;;;-141.50;100.00;63355.56;5100172;28;20096;-79
2022/03/23 11:00:32;;;;;;;20.13;13.60;;;;;;;-141.50;100.00;63355.56;5107896;28;20075;-79
2022/03/23 11:03:00;;;;;;;19.75;13.75;;;;;;;-141.50;100.00;63355.56;5109277;28;20138;-77
2022/03/23 11:05:39;;;;;;;22.30;14.02;;;;;;;-141.50;100.00;63355.56;5108314;28;20052;-79
2022/03/23 11:08:22;;;;;;;18.60;14.27;;;;;;;-141.50;100.00;63355.56;5107757;28;20479;-79
2022/03/23 11:16:51;;;;;;;17.45;13.30;;;;;;;-141.50;100.00;63355.56;5072681;28;20105;-79
2022/03/23 11:19:21;;;;;;;25.50;13.35;;;;;;;-141.50;100.00;63355.56;5070973;28;20048;-80